Time;durP1;ratioP1;P1;durP2;ratioP2;P2;SDS_P1;SDS_P2;PMS_P1;PMS_P2;Temp;Humidity;BMP_temperature;BMP_pressure;BME280_temperature;BME280_humidity;BME280_pressure;Samples;Min_cycle;Max_cycle;Signal;HPM_P1;HPM_P2
2022/03/19 00:00:51;;;;;;;;;;;8.90;74.40;;;;;;4994671;28;19913;-67
2022/03/19 00:03:18;;;;;;;;;;;8.80;74.90;;;;;;5013105;28;19984;-68
2022/03/19 00:05:44;;;;;;;;;;;8.70;75.10;;;;;;4994339;28;19960;-68
2022/03/19 00:08:11;;;;;;;;;;;8.70;75.20;;;;;;5012731;28;19945;-68
2022/03/19 00:10:36;;;;;;;;;;;8.70;75.40;;;;;;5012508;28;19909;-68
2022/03/19 00:13:02;;;;;;;;;;;8.60;75.60;;;;;;4995385;28;19917;-68
2022/03/19 00:15:28;;;;;;;;;;;8.70;75.70;;;;;;5012732;28;19909;-68
2022/03/19 00:17:54;;;;;;;;;;;8.50;75.80;;;;;;5012448;28;19917;-69
2022/03/19 00:20:20;;;;;;;;;;;8.50;76.10;;;;;;4995297;28;20228;-67
2022/03/19 00:22:45;;;;;;;;;;;8.50;76.40;;;;;;4994659;28;20000;-68
2022/03/19 00:25:13;;;;;;;;;;;8.40;76.70;;;;;;5012267;28;20405;-67
2022/03/19 00:27:42;;;;;;;;;;;8.30;76.80;;;;;;4994546;28;19952;-69
2022/03/19 00:30:08;;;;;;;;;;;8.30;77.10;;;;;;5013227;28;20004;-68
2022/03/19 00:32:34;;;;;;;;;;;8.30;77.20;;;;;;4995027;28;19909;-67
2022/03/19 00:34:59;;;;;;;;;;;8.40;77.30;;;;;;5011657;28;19909;-68
2022/03/19 00:37:25;;;;;;;;;;;8.30;77.90;;;;;;4994970;28;19910;-68
2022/03/19 00:39:51;;;;;;;;;;;8.30;78.00;;;;;;4994393;28;20000;-69
2022/03/19 00:42:16;;;;;;;;;;;8.20;78.40;;;;;;4994469;28;19979;-68
2022/03/19 00:44:43;;;;;;;;;;;8.30;78.70;;;;;;5011917;28;19920;-69
2022/03/19 00:47:09;;;;;;;;;;;8.30;79.00;;;;;;4994701;28;20251;-68
2022/03/19 00:49:34;;;;;;;;;;;8.20;79.10;;;;;;4994672;28;19913;-68
2022/03/19 00:52:00;;;;;;;;;;;8.20;79.60;;;;;;5011515;28;19920;-67
2022/03/19 00:54:25;;;;;;;;;;;8.20;80.00;;;;;;5012073;28;19944;-68
2022/03/19 00:56:51;;;;;;;;;;;8.10;80.20;;;;;;5011800;28;19909;-68
2022/03/19 00:59:16;;;;;;;;;;;8.10;80.50;;;;;;4994529;28;19910;-68
2022/03/19 01:01:42;;;;;;;;;;;8.10;81.10;;;;;;4993937;28;20389;-69
2022/03/19 01:04:07;;;;;;;;;;;8.10;81.30;;;;;;5012163;28;19945;-68
2022/03/19 01:06:33;;;;;;;;;;;8.00;81.80;;;;;;4994660;28;19963;-68
2022/03/19 01:08:58;;;;;;;;;;;7.90;82.40;;;;;;5012066;28;20234;-69
2022/03/19 01:11:24;;;;;;;;;;;7.90;82.60;;;;;;4994384;28;20295;-68
2022/03/19 01:13:50;;;;;;;;;;;7.90;82.80;;;;;;4993613;28;19910;-68
2022/03/19 01:16:18;;;;;;;;;;;7.90;83.00;;;;;;4994112;28;20003;-68
2022/03/19 01:18:44;;;;;;;;;;;8.00;83.10;;;;;;4993221;28;20377;-69
2022/03/19 01:21:10;;;;;;;;;;;7.90;83.60;;;;;;4994459;28;19917;-69
2022/03/19 01:23:35;;;;;;;;;;;7.90;83.70;;;;;;4994152;28;20325;-68
2022/03/19 01:26:01;;;;;;;;;;;7.80;84.40;;;;;;4993508;28;19925;-67
2022/03/19 01:28:26;;;;;;;;;;;7.80;84.90;;;;;;4994280;28;19916;-68
2022/03/19 01:30:52;;;;;;;;;;;7.80;85.20;;;;;;5011211;28;19909;-68
2022/03/19 01:33:17;;;;;;;;;;;7.70;85.40;;;;;;4994323;28;19909;-68
2022/03/19 01:35:43;;;;;;;;;;;7.80;85.40;;;;;;5011400;28;19963;-68
2022/03/19 01:38:08;;;;;;;;;;;7.70;85.80;;;;;;4994293;28;19917;-67
2022/03/19 01:40:34;;;;;;;;;;;7.80;86.00;;;;;;4994117;28;20318;-67
2022/03/19 01:43:00;;;;;;;;;;;7.80;86.10;;;;;;4993532;28;19913;-67
2022/03/19 01:45:26;;;;;;;;;;;7.80;86.20;;;;;;4993863;28;19909;-67
2022/03/19 01:47:52;;;;;;;;;;;7.70;86.20;;;;;;4993653;28;19909;-67
2022/03/19 01:50:19;;;;;;;;;;;7.80;86.70;;;;;;4994246;28;20013;-66
2022/03/19 01:52:44;;;;;;;;;;;7.70;86.90;;;;;;5011045;28;19913;-67
2022/03/19 01:55:11;;;;;;;;;;;7.50;87.80;;;;;;4993787;28;19924;-68
2022/03/19 01:57:38;;;;;;;;;;;7.50;88.20;;;;;;4994354;28;20251;-67
2022/03/19 02:00:07;;;;;;;;;;;7.40;89.00;;;;;;4993032;28;19921;-67
2022/03/19 02:02:33;;;;;;;;;;;7.40;89.80;;;;;;4994030;28;19913;-68
2022/03/19 02:05:01;;;;;;;;;;;7.50;89.40;;;;;;5011366;28;19972;-68
2022/03/19 02:07:27;;;;;;;;;;;7.40;90.00;;;;;;5011782;28;19996;-68
2022/03/19 02:09:53;;;;;;;;;;;7.30;90.30;;;;;;4993355;28;20354;-68
2022/03/19 02:12:18;;;;;;;;;;;7.30;90.40;;;;;;5011696;28;19916;-68
2022/03/19 02:14:44;;;;;;;;;;;7.40;90.50;;;;;;4993403;28;19921;-69
2022/03/19 02:17:10;;;;;;;;;;;7.40;90.70;;;;;;5011498;28;20252;-68
2022/03/19 02:19:45;;;;;;;;;;;7.40;90.60;;;;;;4994187;28;20238;-68
2022/03/19 02:22:11;;;;;;;;;;;7.30;91.00;;;;;;4994006;28;19913;-67
2022/03/19 02:27:21;;;;;;;;;;;7.30;91.10;;;;;;5011668;28;19928;-68
2022/03/19 02:29:46;;;;;;;;;;;7.30;91.40;;;;;;4996198;28;19921;-68
2022/03/19 02:32:11;;;;;;;;;;;7.30;91.10;;;;;;5015073;28;19952;-67
2022/03/19 02:34:37;;;;;;;;;;;7.40;91.30;;;;;;4997317;28;19910;-68
2022/03/19 02:37:03;;;;;;;;;;;7.40;91.20;;;;;;5014619;28;20323;-68
2022/03/19 02:39:31;;;;;;;;;;;7.40;91.10;;;;;;4997078;28;19910;-68
2022/03/19 02:42:06;;;;;;;;;;;7.40;91.30;;;;;;5014438;28;19997;-67
2022/03/19 02:44:31;;;;;;;;;;;7.40;91.40;;;;;;5015041;28;20251;-68
2022/03/19 02:46:59;;;;;;;;;;;7.30;91.60;;;;;;5014565;28;19909;-68
2022/03/19 02:49:25;;;;;;;;;;;7.30;91.70;;;;;;4997224;28;19913;-67
2022/03/19 02:51:52;;;;;;;;;;;7.30;91.70;;;;;;4996726;28;19964;-68
2022/03/19 02:54:19;;;;;;;;;;;7.30;91.80;;;;;;4996983;28;19935;-67
2022/03/19 02:56:44;;;;;;;;;;;7.40;91.70;;;;;;4997007;28;19978;-68
2022/03/19 02:59:12;;;;;;;;;;;7.30;92.00;;;;;;5014383;28;20008;-68
2022/03/19 03:01:41;;;;;;;;;;;7.30;92.40;;;;;;4996975;28;20236;-67
2022/03/19 03:04:06;;;;;;;;;;;7.20;92.50;;;;;;4996366;28;20405;-67
2022/03/19 03:06:36;;;;;;;;;;;7.10;92.70;;;;;;5014383;28;19989;-67
2022/03/19 03:09:02;;;;;;;;;;;7.20;92.80;;;;;;4996298;28;19909;-68
2022/03/19 03:11:28;;;;;;;;;;;7.20;92.80;;;;;;5014076;28;20286;-68
2022/03/19 03:13:53;;;;;;;;;;;7.20;92.90;;;;;;5013745;28;19909;-68
2022/03/19 03:16:19;;;;;;;;;;;7.30;92.90;;;;;;4996614;28;20000;-68
2022/03/19 03:18:45;;;;;;;;;;;7.20;93.10;;;;;;4996764;28;19913;-69
2022/03/19 03:21:10;;;;;;;;;;;7.30;93.20;;;;;;5013533;28;19996;-67
2022/03/19 03:23:36;;;;;;;;;;;7.20;93.30;;;;;;5014440;28;20417;-68
2022/03/19 03:26:02;;;;;;;;;;;7.10;93.80;;;;;;4995757;28;20352;-68
2022/03/19 03:28:27;;;;;;;;;;;7.00;93.70;;;;;;5014774;28;19909;-68
2022/03/19 03:30:53;;;;;;;;;;;7.10;93.90;;;;;;5013813;28;19955;-68
2022/03/19 03:33:19;;;;;;;;;;;7.10;93.90;;;;;;5014481;28;19955;-68
2022/03/19 03:35:44;;;;;;;;;;;7.00;94.30;;;;;;5014657;28;20333;-68
2022/03/19 03:38:10;;;;;;;;;;;7.00;94.30;;;;;;4995841;28;19909;-69
2022/03/19 03:40:35;;;;;;;;;;;7.00;94.50;;;;;;5013384;28;19919;-68
2022/03/19 03:43:01;;;;;;;;;;;7.00;94.50;;;;;;4996126;28;19920;-69
2022/03/19 03:45:30;;;;;;;;;;;7.00;94.50;;;;;;4996508;28;19916;-68
2022/03/19 03:47:55;;;;;;;;;;;7.00;94.50;;;;;;4995971;28;20000;-69
2022/03/19 03:50:21;;;;;;;;;;;6.90;94.70;;;;;;4996498;28;20017;-68
2022/03/19 03:52:47;;;;;;;;;;;6.80;95.00;;;;;;4996500;28;19960;-68
2022/03/19 03:55:13;;;;;;;;;;;6.90;95.20;;;;;;4995426;28;20024;-67
2022/03/19 03:57:39;;;;;;;;;;;6.90;95.20;;;;;;5013842;28;19960;-68
2022/03/19 04:00:06;;;;;;;;;;;6.90;95.30;;;;;;4995650;28;19913;-68
2022/03/19 04:02:31;;;;;;;;;;;6.90;95.30;;;;;;4996261;28;19976;-68
2022/03/19 04:04:57;;;;;;;;;;;6.80;95.70;;;;;;5013452;28;19910;-67
2022/03/19 04:07:23;;;;;;;;;;;6.80;95.70;;;;;;5013965;28;19952;-67
2022/03/19 04:09:49;;;;;;;;;;;6.80;95.90;;;;;;5013295;28;19910;-68
2022/03/19 04:12:15;;;;;;;;;;;6.80;96.00;;;;;;5012780;28;19932;-68
2022/03/19 04:14:40;;;;;;;;;;;6.70;96.30;;;;;;4995970;28;19933;-68
2022/03/19 04:17:06;;;;;;;;;;;6.70;96.50;;;;;;4995402;28;20278;-68
2022/03/19 04:19:32;;;;;;;;;;;6.70;96.60;;;;;;5013136;28;20256;-69
2022/03/19 04:21:57;;;;;;;;;;;6.70;96.80;;;;;;5012602;28;19948;-68
2022/03/19 04:24:23;;;;;;;;;;;6.60;96.90;;;;;;5013032;28;19929;-68
2022/03/19 04:26:48;;;;;;;;;;;6.70;96.80;;;;;;5013403;28;19975;-67
2022/03/19 04:29:14;;;;;;;;;;;6.80;96.80;;;;;;5012201;28;20322;-67
2022/03/19 04:31:39;;;;;;;;;;;6.70;96.90;;;;;;5013362;28;19909;-68
2022/03/19 04:34:05;;;;;;;;;;;6.70;97.10;;;;;;4994964;28;20289;-68
2022/03/19 04:36:30;;;;;;;;;;;6.70;97.10;;;;;;4995673;28;19964;-68
2022/03/19 04:38:57;;;;;;;;;;;6.60;97.50;;;;;;5012641;28;20013;-68
2022/03/19 04:41:22;;;;;;;;;;;6.60;97.70;;;;;;4995332;28;19918;-68
2022/03/19 04:43:49;;;;;;;;;;;6.60;97.80;;;;;;4995523;28;20389;-68
2022/03/19 04:46:14;;;;;;;;;;;6.60;97.80;;;;;;4994845;28;19913;-67
2022/03/19 04:48:42;;;;;;;;;;;6.70;97.80;;;;;;4995257;28;19964;-68
2022/03/19 04:51:08;;;;;;;;;;;6.60;97.90;;;;;;4994106;28;19932;-68
2022/03/19 04:53:34;;;;;;;;;;;6.50;98.50;;;;;;4994921;28;19917;-68
2022/03/19 04:55:59;;;;;;;;;;;6.50;98.50;;;;;;4994533;28;19910;-69
2022/03/19 04:58:25;;;;;;;;;;;6.40;98.90;;;;;;4994855;28;20347;-67
2022/03/19 05:00:50;;;;;;;;;;;6.40;99.20;;;;;;5012264;28;20344;-68
2022/03/19 05:03:16;;;;;;;;;;;6.50;99.20;;;;;;4994196;28;19935;-69
2022/03/19 05:05:41;;;;;;;;;;;6.40;99.30;;;;;;4994754;28;19953;-68
2022/03/19 05:08:07;;;;;;;;;;;6.40;99.50;;;;;;4994102;28;19959;-67
2022/03/19 05:13:18;;;;;;;;;;;6.50;99.60;;;;;;5011751;28;19916;-67
2022/03/19 05:15:43;;;;;;;;;;;6.50;99.80;;;;;;5012239;28;19910;-68
2022/03/19 05:18:09;;;;;;;;;;;6.40;99.90;;;;;;4993927;28;20274;-68
2022/03/19 05:20:35;;;;;;;;;;;6.40;99.90;;;;;;5012170;28;20278;-68
2022/03/19 05:23:00;;;;;;;;;;;6.40;99.90;;;;;;4993663;28;19920;-68
2022/03/19 05:25:26;;;;;;;;;;;6.40;99.90;;;;;;5011969;28;20386;-67
2022/03/19 05:27:52;;;;;;;;;;;6.40;99.90;;;;;;4994190;28;19914;-68
2022/03/19 05:30:17;;;;;;;;;;;6.40;99.90;;;;;;5011324;28;19946;-68
2022/03/19 05:32:43;;;;;;;;;;;6.40;99.90;;;;;;5011981;28;19909;-67
2022/03/19 05:35:09;;;;;;;;;;;6.40;99.90;;;;;;5010977;28;19956;-67
2022/03/19 05:37:34;;;;;;;;;;;6.30;99.90;;;;;;5011612;28;19924;-67
2022/03/19 05:40:03;;;;;;;;;;;6.40;99.90;;;;;;5011311;28;20018;-67
2022/03/19 05:42:29;;;;;;;;;;;6.40;99.90;;;;;;4994090;28;19914;-68
2022/03/19 05:44:55;;;;;;;;;;;6.40;99.90;;;;;;5011942;28;20373;-69
2022/03/19 05:47:20;;;;;;;;;;;6.50;99.90;;;;;;4993502;28;20359;-68
2022/03/19 05:49:46;;;;;;;;;;;6.40;99.90;;;;;;5011566;28;19916;-68
2022/03/19 05:52:11;;;;;;;;;;;6.40;99.90;;;;;;5010992;28;20302;-68
2022/03/19 05:54:37;;;;;;;;;;;6.30;99.90;;;;;;5011451;28;19996;-68
2022/03/19 05:57:03;;;;;;;;;;;6.40;99.90;;;;;;5011454;28;19914;-67
2022/03/19 05:59:29;;;;;;;;;;;6.40;99.90;;;;;;4993888;28;20043;-67
2022/03/19 06:01:54;;;;;;;;;;;6.30;99.90;;;;;;4993995;28;19914;-67
2022/03/19 06:04:20;;;;;;;;;;;6.40;99.90;;;;;;4995688;28;19920;-68
2022/03/19 06:06:45;;;;;;;;;;;6.40;99.90;;;;;;4997877;28;20279;-68
2022/03/19 06:09:11;;;;;;;;;;;6.30;99.90;;;;;;4997264;28;20358;-68
2022/03/19 06:11:38;;;;;;;;;;;6.40;99.90;;;;;;4997362;28;20286;-68
2022/03/19 06:14:04;;;;;;;;;;;6.40;99.90;;;;;;4996838;28;19909;-67
2022/03/19 06:16:29;;;;;;;;;;;6.50;99.90;;;;;;4997624;28;20006;-67
2022/03/19 06:18:55;;;;;;;;;;;6.60;99.90;;;;;;5015422;28;19917;-67
2022/03/19 06:21:22;;;;;;;;;;;6.50;99.90;;;;;;4996896;28;19964;-67
2022/03/19 06:23:49;;;;;;;;;;;6.50;99.90;;;;;;5015191;28;20000;-68
2022/03/19 06:26:15;;;;;;;;;;;6.60;99.90;;;;;;4996404;28;20343;-68
2022/03/19 06:28:41;;;;;;;;;;;6.80;99.90;;;;;;5015371;28;20247;-67
2022/03/19 06:31:06;;;;;;;;;;;6.70;99.90;;;;;;4996868;28;19916;-67
2022/03/19 06:33:32;;;;;;;;;;;6.90;99.90;;;;;;4997331;28;19944;-67
2022/03/19 06:38:42;;;;;;;;;;;7.10;99.90;;;;;;5014522;28;19932;-67
2022/03/19 06:41:09;;;;;;;;;;;7.10;99.90;;;;;;5014232;28;20354;-68
2022/03/19 06:43:35;;;;;;;;;;;7.10;99.90;;;;;;4996940;28;20346;-67
2022/03/19 06:46:00;;;;;;;;;;;7.20;99.90;;;;;;5014239;28;20000;-68
2022/03/19 06:48:26;;;;;;;;;;;7.40;99.90;;;;;;5014851;28;19910;-68
2022/03/19 06:50:53;;;;;;;;;;;7.70;99.90;;;;;;5014819;28;20000;-68
2022/03/19 06:53:19;;;;;;;;;;;8.00;99.90;;;;;;4996124;28;19925;-69
2022/03/19 06:55:44;;;;;;;;;;;8.20;99.90;;;;;;5011860;28;19917;-68
2022/03/19 06:58:10;;;;;;;;;;;8.50;99.30;;;;;;4996470;28;19925;-69
2022/03/19 07:00:36;;;;;;;;;;;8.80;99.00;;;;;;5014476;28;19972;-69
2022/03/19 07:03:01;;;;;;;;;;;9.00;98.60;;;;;;4996301;28;19913;-70
2022/03/19 07:05:28;;;;;;;;;;;9.30;98.00;;;;;;4996664;28;19910;-69
2022/03/19 07:07:54;;;;;;;;;;;9.50;97.70;;;;;;4996517;28;20318;-68
2022/03/19 07:10:19;;;;;;;;;;;9.70;97.30;;;;;;5014002;28;19995;-69
2022/03/19 07:12:46;;;;;;;;;;;10.00;96.80;;;;;;4991163;28;19917;-68
2022/03/19 07:15:12;;;;;;;;;;;10.10;96.50;;;;;;5010837;28;19914;-68
2022/03/19 07:17:38;;;;;;;;;;;10.20;96.20;;;;;;4996260;28;20417;-69
2022/03/19 07:20:04;;;;;;;;;;;10.40;96.00;;;;;;5013613;28;19917;-68
2022/03/19 07:22:44;;;;;;;;;;;10.70;95.50;;;;;;5012070;28;19917;-68
2022/03/19 07:25:09;;;;;;;;;;;10.90;95.40;;;;;;4995078;28;19921;-69
2022/03/19 07:27:35;;;;;;;;;;;11.00;95.10;;;;;;4996455;28;20000;-69
2022/03/19 07:30:00;;;;;;;;;;;11.10;95.00;;;;;;5014061;28;20251;-69
2022/03/19 07:32:26;;;;;;;;;;;11.20;94.70;;;;;;4995670;28;19921;-67
2022/03/19 07:34:52;;;;;;;;;;;11.30;94.60;;;;;;4996080;28;20354;-68
2022/03/19 07:37:17;;;;;;;;;;;11.60;94.30;;;;;;5013329;28;20370;-68
2022/03/19 07:39:43;;;;;;;;;;;11.60;93.80;;;;;;5013873;28;19909;-68
2022/03/19 07:42:09;;;;;;;;;;;11.80;93.70;;;;;;4995150;28;19917;-68
2022/03/19 07:44:34;;;;;;;;;;;12.00;93.00;;;;;;5000549;28;20563;-68
2022/03/19 07:47:00;;;;;;;;;;;12.10;93.00;;;;;;4976494;28;19910;-69
2022/03/19 07:49:25;;;;;;;;;;;12.50;92.70;;;;;;4993230;28;20351;-68
2022/03/19 07:51:55;;;;;;;;;;;12.50;92.40;;;;;;4976311;28;19961;-69
2022/03/19 07:54:27;;;;;;;;;;;12.70;92.00;;;;;;4980649;28;20394;-69
2022/03/19 07:56:53;;;;;;;;;;;13.10;91.40;;;;;;4995533;28;19909;-67
2022/03/19 07:59:19;;;;;;;;;;;13.20;91.00;;;;;;5006257;28;20319;-65
2022/03/19 08:01:44;;;;;;;;;;;13.40;90.50;;;;;;4991682;28;20053;-65
2022/03/19 08:04:10;;;;;;;;;;;13.40;90.00;;;;;;4991909;28;19921;-66
2022/03/19 08:06:36;;;;;;;;;;;13.80;89.80;;;;;;5000451;28;20355;-69
2022/03/19 08:09:03;;;;;;;;;;;13.80;87.90;;;;;;5013107;28;19937;-71
2022/03/19 08:11:31;;;;;;;;;;;14.10;93.80;;;;;;4998811;28;19914;-67
2022/03/19 08:13:56;;;;;;;;;;;14.50;88.60;;;;;;4993168;28;20415;-68
2022/03/19 08:16:24;;;;;;;;;;;14.50;86.60;;;;;;4975163;28;20006;-67
2022/03/19 08:18:49;;;;;;;;;;;14.50;85.70;;;;;;4982102;28;19938;-67
2022/03/19 08:21:15;;;;;;;;;;;14.80;84.70;;;;;;4992052;28;19921;-70
2022/03/19 08:23:40;;;;;;;;;;;15.00;84.50;;;;;;4993859;28;19921;-70
2022/03/19 08:26:06;;;;;;;;;;;15.20;83.10;;;;;;4992927;28;19936;-67
2022/03/19 08:28:32;;;;;;;;;;;15.20;82.40;;;;;;4994882;28;19921;-68
2022/03/19 08:30:58;;;;;;;;;;;15.00;82.50;;;;;;5012048;28;19913;-68
2022/03/19 08:33:24;;;;;;;;;;;15.20;82.90;;;;;;5011938;28;19991;-69
2022/03/19 08:35:50;;;;;;;;;;;15.20;82.60;;;;;;5012706;28;20354;-68
2022/03/19 08:41:00;;;;;;;;;;;15.30;81.80;;;;;;5012159;28;20330;-68
2022/03/19 08:43:25;;;;;;;;;;;15.70;81.40;;;;;;5011640;28;20202;-68
2022/03/19 08:45:51;;;;;;;;;;;15.30;80.70;;;;;;4994223;28;19910;-68
2022/03/19 08:48:18;;;;;;;;;;;15.70;80.50;;;;;;5003714;28;19910;-68
2022/03/19 08:50:44;;;;;;;;;;;15.80;80.10;;;;;;5005792;28;19969;-68
2022/03/19 08:53:10;;;;;;;;;;;16.10;79.60;;;;;;5008935;28;19909;-72
2022/03/19 08:55:35;;;;;;;;;;;16.40;78.90;;;;;;5000119;28;19920;-69
2022/03/19 08:58:03;;;;;;;;;;;16.40;78.60;;;;;;5000654;28;20308;-69
2022/03/19 09:00:28;;;;;;;;;;;16.50;78.00;;;;;;4985439;28;19960;-69
2022/03/19 09:02:55;;;;;;;;;;;16.70;78.40;;;;;;4993979;28;19960;-67
2022/03/19 09:05:21;;;;;;;;;;;16.80;77.80;;;;;;5010170;28;20016;-74
2022/03/19 09:07:46;;;;;;;;;;;17.20;77.50;;;;;;5007426;28;20423;-68
2022/03/19 09:10:12;;;;;;;;;;;17.30;75.60;;;;;;4992316;28;19941;-69
2022/03/19 09:12:38;;;;;;;;;;;17.10;74.30;;;;;;5010666;28;19906;-69
2022/03/19 09:15:04;;;;;;;;;;;17.60;73.60;;;;;;5010877;28;19932;-68
2022/03/19 09:17:30;;;;;;;;;;;17.70;72.40;;;;;;5010972;28;19928;-68
2022/03/19 09:19:55;;;;;;;;;;;17.80;71.90;;;;;;4994078;28;19905;-69
2022/03/19 09:22:21;;;;;;;;;;;17.50;72.70;;;;;;5009837;28;20015;-68
2022/03/19 09:24:46;;;;;;;;;;;18.00;72.00;;;;;;4993632;28;20244;-68
2022/03/19 09:27:12;;;;;;;;;;;18.20;71.90;;;;;;5010346;28;19937;-68
2022/03/19 09:29:38;;;;;;;;;;;18.30;71.30;;;;;;5011271;28;20276;-68
2022/03/19 09:32:03;;;;;;;;;;;18.20;72.20;;;;;;4993684;28;20302;-68
2022/03/19 09:34:29;;;;;;;;;;;18.30;71.30;;;;;;4992935;28;19909;-69
2022/03/19 09:36:55;;;;;;;;;;;18.30;71.20;;;;;;5011330;28;19987;-68
2022/03/19 09:39:20;;;;;;;;;;;18.20;71.40;;;;;;4991944;28;19906;-68
2022/03/19 09:41:47;;;;;;;;;;;17.60;71.60;;;;;;4993049;28;19910;-68
2022/03/19 09:44:13;;;;;;;;;;;18.20;70.50;;;;;;4992858;28;19927;-69
2022/03/19 09:46:39;;;;;;;;;;;18.80;68.40;;;;;;4993279;28;20012;-69
2022/03/19 09:49:04;;;;;;;;;;;19.20;66.50;;;;;;4993287;28;19905;-70
2022/03/19 09:51:32;;;;;;;;;;;19.50;64.70;;;;;;5010804;28;20041;-69
2022/03/19 09:53:57;;;;;;;;;;;19.60;63.60;;;;;;4993191;28;19966;-68
2022/03/19 09:56:23;;;;;;;;;;;19.70;64.10;;;;;;5004625;28;20331;-69
2022/03/19 09:58:48;;;;;;;;;;;19.60;61.90;;;;;;4985646;28;20407;-69
2022/03/19 10:01:16;;;;;;;;;;;19.50;62.00;;;;;;4992445;28;19958;-68
2022/03/19 10:03:42;;;;;;;;;;;19.70;61.00;;;;;;4993383;28;20243;-68
2022/03/19 10:08:56;;;;;;;;;;;19.40;62.60;;;;;;5005831;28;19967;-68
2022/03/19 10:11:22;;;;;;;;;;;19.30;61.70;;;;;;5008231;28;19913;-69
2022/03/19 10:13:50;;;;;;;;;;;19.80;61.60;;;;;;4987007;28;19905;-68
2022/03/19 10:16:20;;;;;;;;;;;20.00;61.30;;;;;;5002411;28;19905;-70
2022/03/19 10:18:53;;;;;;;;;;;20.00;60.30;;;;;;4993667;28;20322;-69
2022/03/19 10:21:19;;;;;;;;;;;20.00;60.80;;;;;;4989848;28;19910;-67
2022/03/19 10:23:45;;;;;;;;;;;19.40;66.40;;;;;;4986456;28;19945;-67
2022/03/19 10:26:27;;;;;;;;;;;19.60;64.60;;;;;;4969056;28;20331;-68
2022/03/19 10:28:59;;;;;;;;;;;20.40;64.20;;;;;;4986903;28;19914;-69
2022/03/19 10:31:29;;;;;;;;;;;20.70;59.20;;;;;;5004867;28;19932;-69
2022/03/19 10:33:55;;;;;;;;;;;20.90;61.80;;;;;;5006474;28;20007;-68
2022/03/19 10:36:28;;;;;;;;;;;21.00;59.40;;;;;;4986911;28;20282;-68
2022/03/19 10:38:54;;;;;;;;;;;20.70;59.60;;;;;;5003293;28;19909;-69
2022/03/19 10:41:19;;;;;;;;;;;20.30;59.50;;;;;;4986990;28;19925;-68
2022/03/19 10:43:46;;;;;;;;;;;20.70;59.30;;;;;;4987502;28;20247;-69
2022/03/19 10:46:12;;;;;;;;;;;21.10;57.40;;;;;;4987633;28;19913;-70
2022/03/19 10:48:38;;;;;;;;;;;21.10;56.40;;;;;;4987025;28;19941;-67
2022/03/19 10:51:07;;;;;;;;;;;21.20;57.40;;;;;;4990631;28;19910;-67
2022/03/19 10:53:33;;;;;;;;;;;20.90;56.90;;;;;;4990987;28;19920;-67
2022/03/19 10:56:01;;;;;;;;;;;20.60;57.60;;;;;;5015065;28;19909;-68
2022/03/19 10:58:27;;;;;;;;;;;20.10;56.30;;;;;;5014265;28;19909;-67
2022/03/19 11:00:52;;;;;;;;;;;20.40;56.40;;;;;;4987580;28;19915;-69
2022/03/19 11:03:19;;;;;;;;;;;20.60;56.20;;;;;;4995190;28;20000;-68
2022/03/19 11:05:45;;;;;;;;;;;20.50;55.70;;;;;;5011775;28;19971;-72
2022/03/19 11:08:12;;;;;;;;;;;21.10;58.50;;;;;;5003854;28;19957;-74
2022/03/19 11:10:38;;;;;;;;;;;20.90;55.50;;;;;;4991858;28;19905;-72
2022/03/19 11:13:06;;;;;;;;;;;20.60;55.60;;;;;;4992539;28;19992;-71
2022/03/19 11:15:34;;;;;;;;;;;21.00;56.20;;;;;;4988970;28;20290;-74
2022/03/19 11:18:05;;;;;;;;;;;21.10;53.40;;;;;;4975197;28;19910;-73
2022/03/19 11:20:30;;;;;;;;;;;20.80;53.60;;;;;;5006866;28;19943;-72
2022/03/19 11:22:58;;;;;;;;;;;20.90;53.90;;;;;;5007104;28;20555;-71
2022/03/19 11:25:26;;;;;;;;;;;21.30;53.10;;;;;;4990283;28;19913;-71
2022/03/19 11:27:57;;;;;;;;;;;20.80;51.80;;;;;;5009113;28;20008;-71
2022/03/19 11:30:23;;;;;;;;;;;21.40;50.80;;;;;;4990124;28;19979;-70
2022/03/19 11:32:59;;;;;;;;;;;21.40;50.70;;;;;;5008975;28;19910;-70
2022/03/19 11:35:25;;;;;;;;;;;21.40;49.60;;;;;;4976323;28;19910;-69
2022/03/19 11:37:58;;;;;;;;;;;21.70;47.30;;;;;;4999688;28;19916;-71
2022/03/19 11:40:32;;;;;;;;;;;20.70;46.20;;;;;;4978539;28;20034;-74
2022/03/19 11:43:00;;;;;;;;;;;21.10;45.70;;;;;;4990417;28;20616;-70
2022/03/19 11:45:26;;;;;;;;;;;20.90;45.50;;;;;;4985088;28;19944;-73
2022/03/19 11:47:52;;;;;;;;;;;20.90;45.40;;;;;;4981966;28;20024;-68
2022/03/19 11:50:19;;;;;;;;;;;21.20;45.20;;;;;;5007290;28;20295;-72
2022/03/19 11:52:48;;;;;;;;;;;20.90;45.60;;;;;;4971089;28;20364;-68
2022/03/19 11:55:17;;;;;;;;;;;21.10;45.30;;;;;;4971024;28;19980;-69
2022/03/19 11:57:45;;;;;;;;;;;21.00;45.20;;;;;;4989376;28;19988;-71
2022/03/19 12:00:12;;;;;;;;;;;20.40;44.60;;;;;;4973202;28;19913;-70
2022/03/19 12:02:56;;;;;;;;;;;20.30;46.00;;;;;;4970555;28;19960;-74
2022/03/19 12:05:26;;;;;;;;;;;20.10;45.70;;;;;;4987870;28;19917;-79
2022/03/19 12:07:54;;;;;;;;;;;20.00;45.20;;;;;;4986744;28;19914;-73
2022/03/19 12:10:24;;;;;;;;;;;20.30;45.50;;;;;;4976872;28;19999;-70
2022/03/19 12:12:50;;;;;;;;;;;20.30;45.30;;;;;;4988628;28;19922;-71
2022/03/19 12:15:31;;;;;;;;;;;19.80;45.60;;;;;;4975922;28;19917;-73
2022/03/19 12:18:15;;;;;;;;;;;20.10;45.90;;;;;;4986376;28;19993;-73
2022/03/19 12:20:44;;;;;;;;;;;20.60;45.50;;;;;;4985720;28;19921;-71
2022/03/19 12:23:12;;;;;;;;;;;20.50;44.70;;;;;;4984030;28;20318;-74
2022/03/19 12:25:41;;;;;;;;;;;20.10;45.50;;;;;;4980422;28;20434;-70
2022/03/19 12:28:08;;;;;;;;;;;20.60;45.50;;;;;;4981932;28;20016;-70
2022/03/19 12:30:35;;;;;;;;;;;20.60;45.00;;;;;;4987802;28;19996;-73
2022/03/19 12:33:00;;;;;;;;;;;20.20;45.70;;;;;;4973487;28;20350;-70
2022/03/19 12:35:32;;;;;;;;;;;19.90;44.70;;;;;;4990152;28;20000;-75
2022/03/19 12:37:58;;;;;;;;;;;20.20;45.20;;;;;;5008875;28;19920;-69
2022/03/19 12:40:25;;;;;;;;;;;20.20;45.50;;;;;;5010300;28;20016;-74
2022/03/19 12:42:52;;;;;;;;;;;20.20;45.10;;;;;;4988500;28;19925;-75
2022/03/19 12:45:17;;;;;;;;;;;19.50;45.10;;;;;;4992000;28;19910;-74
2022/03/19 12:47:43;;;;;;;;;;;19.90;44.70;;;;;;5005771;28;19917;-74
2022/03/19 12:50:09;;;;;;;;;;;20.00;44.30;;;;;;4989582;28;20318;-73
2022/03/19 12:52:42;;;;;;;;;;;19.90;44.60;;;;;;5010660;28;19960;-74
2022/03/19 12:55:17;;;;;;;;;;;19.70;46.10;;;;;;5007397;28;19920;-75
2022/03/19 12:57:43;;;;;;;;;;;20.90;46.10;;;;;;5009177;28;19914;-75
2022/03/19 13:00:09;;;;;;;;;;;20.70;45.90;;;;;;4991515;28;19916;-74
2022/03/19 13:02:34;;;;;;;;;;;20.20;46.30;;;;;;4990975;28;20345;-74
2022/03/19 13:05:00;;;;;;;;;;;20.20;46.80;;;;;;5009264;28;19920;-74
2022/03/19 13:07:25;;;;;;;;;;;19.70;46.30;;;;;;4990788;28;20275;-75
2022/03/19 13:09:51;;;;;;;;;;;20.10;45.30;;;;;;5007293;28;19918;-75
2022/03/19 13:12:21;;;;;;;;;;;19.90;44.80;;;;;;4986791;28;19910;-75
2022/03/19 13:14:47;;;;;;;;;;;19.90;44.60;;;;;;4980598;28;19909;-76
2022/03/19 13:17:14;;;;;;;;;;;20.30;44.50;;;;;;4988312;28;20406;-75
2022/03/19 13:19:40;;;;;;;;;;;20.40;44.30;;;;;;4983507;28;19914;-72
2022/03/19 13:22:08;;;;;;;;;;;20.30;44.70;;;;;;4973873;28;20398;-74
2022/03/19 13:24:36;;;;;;;;;;;20.00;44.10;;;;;;4974247;28;19918;-74
2022/03/19 13:27:02;;;;;;;;;;;20.20;44.80;;;;;;4973542;28;19926;-74
2022/03/19 13:29:31;;;;;;;;;;;19.10;45.30;;;;;;4972695;28;19916;-73
2022/03/19 13:31:57;;;;;;;;;;;19.50;45.40;;;;;;4991175;28;19910;-73
2022/03/19 13:34:25;;;;;;;;;;;19.50;45.00;;;;;;4972782;28;19910;-76
2022/03/19 13:37:21;;;;;;;;;;;19.80;45.10;;;;;;4991168;28;19932;-72
2022/03/19 13:39:56;;;;;;;;;;;18.80;45.00;;;;;;4911417;29;19918;-71
2022/03/19 13:42:28;;;;;;;;;;;19.10;44.60;;;;;;4911820;29;20021;-72
2022/03/19 13:45:05;;;;;;;;;;;19.10;43.90;;;;;;4911253;29;19958;-73
2022/03/19 13:47:38;;;;;;;;;;;19.40;44.10;;;;;;4895508;29;19939;-73
2022/03/19 13:50:07;;;;;;;;;;;19.80;44.90;;;;;;4896212;29;19919;-72
2022/03/19 13:52:34;;;;;;;;;;;19.70;45.20;;;;;;4894928;29;19911;-73
2022/03/19 13:55:02;;;;;;;;;;;19.40;45.10;;;;;;4911441;29;19956;-72
2022/03/19 13:57:29;;;;;;;;;;;19.80;45.00;;;;;;4910937;29;20038;-73
2022/03/19 14:00:11;;;;;;;;;;;20.10;44.30;;;;;;4896239;29;19918;-73
2022/03/19 14:02:37;;;;;;;;;;;18.60;44.90;;;;;;4911029;29;19915;-75
2022/03/19 14:05:04;;;;;;;;;;;18.70;45.60;;;;;;4895704;29;20031;-72
2022/03/19 14:07:31;;;;;;;;;;;18.80;44.40;;;;;;4895508;29;20096;-73
2022/03/19 14:09:58;;;;;;;;;;;18.00;44.10;;;;;;4911631;29;19942;-72
2022/03/19 14:12:40;;;;;;;;;;;17.90;44.70;;;;;;4911798;29;19911;-73
2022/03/19 14:15:06;;;;;;;;;;;17.90;44.70;;;;;;4916989;28;19926;-72
2022/03/19 14:17:44;;;;;;;;;;;17.70;45.50;;;;;;4990699;28;19916;-71
2022/03/19 14:20:12;;;;;;;;;;;17.50;46.10;;;;;;4973421;28;19957;-73
2022/03/19 14:22:38;;;;;;;;;;;18.00;46.30;;;;;;4973219;28;19921;-71
2022/03/19 14:25:04;;;;;;;;;;;18.40;45.60;;;;;;4975675;28;19925;-73
2022/03/19 14:27:30;;;;;;;;;;;18.20;45.10;;;;;;4976697;28;19933;-74
2022/03/19 14:29:56;;;;;;;;;;;17.60;45.20;;;;;;4995263;28;19975;-72
2022/03/19 14:32:22;;;;;;;;;;;17.00;45.70;;;;;;4994862;28;19926;-72
2022/03/19 14:34:47;;;;;;;;;;;17.10;45.90;;;;;;4994375;28;19910;-73